Time;durP1;ratioP1;P1;durP2;ratioP2;P2;SDS_P1;SDS_P2;PMS_P1;PMS_P2;Temp;Humidity;BMP_temperature;BMP_pressure;BME280_temperature;BME280_humidity;BME280_pressure;Samples;Min_cycle;Max_cycle;Signal;HPM_P1;HPM_P2
2021/07/22 00:03:46;;;;;;;0.50;0.50;;;;;;;;;;10357419;28;20740;-26
2021/07/22 00:09:05;;;;;;;0.50;0.50;;;;;;;;;;10357134;28;20131;-27
2021/07/22 00:14:07;;;;;;;0.60;0.60;;;;;;;;;;10352132;28;20992;-27
2021/07/22 00:19:13;;;;;;;0.60;0.60;;;;;;;;;;10356351;28;20083;-28
2021/07/22 00:24:15;;;;;;;0.50;0.50;;;;;;;;;;10352926;28;20037;-26
2021/07/22 00:29:18;;;;;;;0.40;0.40;;;;;;;;;;10356985;28;20073;-26
2021/07/22 00:34:22;;;;;;;0.60;0.60;;;;;;;;;;10356584;28;20042;-26
2021/07/22 00:39:25;;;;;;;0.40;0.40;;;;;;;;;;10358226;28;20442;-28
2021/07/22 00:44:28;;;;;;;0.52;0.52;;;;;;;;;;10347815;28;20376;-26
2021/07/22 00:49:33;;;;;;;0.50;0.50;;;;;;;;;;10343355;28;20045;-26
2021/07/22 00:54:37;;;;;;;0.43;0.43;;;;;;;;;;10347243;28;20069;-26
2021/07/22 00:59:40;;;;;;;0.50;0.50;;;;;;;;;;10351447;28;20085;-26
2021/07/22 01:04:44;;;;;;;0.50;0.50;;;;;;;;;;10354846;28;20104;-26
2021/07/22 01:09:50;;;;;;;0.40;0.40;;;;;;;;;;10355274;28;20053;-26
2021/07/22 01:14:52;;;;;;;0.60;0.60;;;;;;;;;;10366945;28;20060;-28
2021/07/22 01:19:58;;;;;;;0.50;0.50;;;;;;;;;;10352216;28;20046;-26
2021/07/22 01:25:03;;;;;;;0.50;0.50;;;;;;;;;;10347070;28;20834;-26
2021/07/22 01:30:06;;;;;;;0.60;0.50;;;;;;;;;;10354912;28;20054;-26
2021/07/22 01:35:13;;;;;;;0.47;0.47;;;;;;;;;;10353512;28;20160;-26
2021/07/22 01:40:19;;;;;;;0.45;0.40;;;;;;;;;;10357099;28;20053;-26
2021/07/22 01:45:23;;;;;;;1.02;0.50;;;;;;;;;;10351896;28;20495;-26
2021/07/22 01:50:26;;;;;;;0.50;0.50;;;;;;;;;;10356831;28;20124;-28
2021/07/22 01:55:31;;;;;;;0.40;0.40;;;;;;;;;;10345139;28;20120;-27
2021/07/22 02:00:37;;;;;;;0.50;0.50;;;;;;;;;;10348095;28;20131;-26
2021/07/22 02:05:40;;;;;;;0.50;0.50;;;;;;;;;;10348093;28;20041;-27
2021/07/22 02:10:44;;;;;;;0.47;0.47;;;;;;;;;;10355791;28;20081;-26
2021/07/22 02:15:47;;;;;;;0.50;0.50;;;;;;;;;;10350896;28;20046;-26
2021/07/22 02:21:04;;;;;;;0.52;0.52;;;;;;;;;;10349819;28;20191;-26
2021/07/22 02:26:10;;;;;;;0.57;0.50;;;;;;;;;;10350263;28;20446;-26
2021/07/22 02:31:13;;;;;;;0.40;0.40;;;;;;;;;;10342992;28;20076;-29
2021/07/22 02:36:19;;;;;;;0.50;0.50;;;;;;;;;;10350222;28;20108;-26
2021/07/22 02:41:32;;;;;;;0.50;0.50;;;;;;;;;;10355568;28;20045;-26
2021/07/22 02:46:36;;;;;;;1.08;0.50;;;;;;;;;;10352287;28;20046;-28
2021/07/22 02:51:40;;;;;;;0.70;0.70;;;;;;;;;;10350643;28;20042;-28
2021/07/22 02:56:47;;;;;;;0.90;0.70;;;;;;;;;;10352474;28;20056;-26
2021/07/22 03:01:58;;;;;;;0.65;0.60;;;;;;;;;;10353115;28;20057;-26
2021/07/22 03:07:03;;;;;;;0.60;0.60;;;;;;;;;;10353758;28;20506;-26
2021/07/22 03:12:08;;;;;;;0.70;0.57;;;;;;;;;;10357650;28;20264;-27
2021/07/22 03:17:24;;;;;;;0.60;0.60;;;;;;;;;;10357516;28;20057;-27
2021/07/22 03:22:32;;;;;;;0.55;0.55;;;;;;;;;;10351557;28;20046;-26
2021/07/22 03:27:59;;;;;;;0.60;0.55;;;;;;;;;;10342368;28;20050;-25
2021/07/22 03:33:25;;;;;;;0.95;0.80;;;;;;;;;;10351057;28;20766;-26
2021/07/22 03:38:34;;;;;;;0.60;0.60;;;;;;;;;;10350612;28;20402;-25
2021/07/22 03:43:58;;;;;;;0.50;0.50;;;;;;;;;;10348228;28;20128;-26
2021/07/22 03:49:00;;;;;;;0.55;0.55;;;;;;;;;;10353992;28;20117;-26
2021/07/22 03:54:06;;;;;;;0.60;0.60;;;;;;;;;;10355321;28;20832;-26
2021/07/22 03:59:10;;;;;;;0.60;0.60;;;;;;;;;;10350437;28;20046;-27
2021/07/22 04:04:15;;;;;;;0.60;0.60;;;;;;;;;;10348306;28;20053;-26
2021/07/22 04:09:18;;;;;;;0.55;0.52;;;;;;;;;;10350510;28;20069;-25
2021/07/22 04:14:37;;;;;;;0.60;0.60;;;;;;;;;;10348760;28;20452;-26
2021/07/22 04:19:49;;;;;;;0.82;0.50;;;;;;;;;;10355963;28;20044;-26
2021/07/22 04:25:12;;;;;;;0.88;0.73;;;;;;;;;;10350914;28;20049;-26
2021/07/22 04:30:34;;;;;;;0.60;0.60;;;;;;;;;;10355320;28;20825;-26
2021/07/22 04:35:58;;;;;;;0.50;0.50;;;;;;;;;;10351022;28;20053;-25
2021/07/22 04:41:27;;;;;;;0.52;0.52;;;;;;;;;;10347689;28;20068;-26
2021/07/22 04:46:34;;;;;;;1.52;0.60;;;;;;;;;;10350008;28;20591;-28
2021/07/22 04:51:57;;;;;;;0.60;0.60;;;;;;;;;;10341706;28;20321;-26
2021/07/22 04:57:11;;;;;;;0.50;0.50;;;;;;;;;;10347618;28;20048;-26
2021/07/22 05:02:21;;;;;;;1.42;0.70;;;;;;;;;;10349919;28;20045;-26
2021/07/22 05:07:26;;;;;;;0.60;0.60;;;;;;;;;;10345118;28;20077;-25
2021/07/22 05:12:41;;;;;;;0.82;0.60;;;;;;;;;;10352384;28;20064;-26
2021/07/22 05:18:08;;;;;;;0.50;0.50;;;;;;;;;;10349293;28;20125;-26
2021/07/22 05:23:30;;;;;;;0.93;0.70;;;;;;;;;;10345895;28;20490;-25
2021/07/22 05:28:55;;;;;;;0.50;0.50;;;;;;;;;;10350583;28;20058;-25
2021/07/22 05:34:18;;;;;;;0.68;0.68;;;;;;;;;;10365119;28;20430;-25
2021/07/22 05:39:29;;;;;;;0.52;0.52;;;;;;;;;;10351528;28;20052;-26
2021/07/22 05:44:32;;;;;;;0.70;0.70;;;;;;;;;;10351029;28;20475;-25
2021/07/22 05:49:36;;;;;;;0.55;0.55;;;;;;;;;;10354009;28;20045;-27
2021/07/22 05:54:39;;;;;;;0.57;0.50;;;;;;;;;;10340539;28;20046;-26
2021/07/22 05:59:41;;;;;;;0.98;0.60;;;;;;;;;;10341473;28;20045;-26
2021/07/22 06:04:45;;;;;;;0.50;0.50;;;;;;;;;;10349920;28;20398;-26
2021/07/22 06:09:48;;;;;;;0.43;0.43;;;;;;;;;;10354260;28;20041;-26
2021/07/22 06:14:51;;;;;;;0.50;0.50;;;;;;;;;;10350732;28;20042;-25
2021/07/22 06:19:55;;;;;;;0.70;0.50;;;;;;;;;;10354010;28;20052;-26
2021/07/22 06:24:57;;;;;;;0.60;0.60;;;;;;;;;;10349138;28;20498;-26
2021/07/22 06:30:00;;;;;;;1.27;0.60;;;;;;;;;;10345851;28;20057;-26
2021/07/22 06:35:08;;;;;;;1.80;0.70;;;;;;;;;;10354803;28;20188;-26
2021/07/22 06:40:11;;;;;;;0.95;0.50;;;;;;;;;;10355917;28;20042;-26
2021/07/22 06:45:14;;;;;;;1.05;0.60;;;;;;;;;;10353893;28;20062;-25
2021/07/22 06:50:18;;;;;;;1.63;0.77;;;;;;;;;;10374171;28;20057;-26
2021/07/22 06:55:21;;;;;;;1.25;0.60;;;;;;;;;;10355464;28;20049;-26
2021/07/22 07:00:24;;;;;;;0.45;0.45;;;;;;;;;;10349371;28;20053;-26
2021/07/22 07:05:28;;;;;;;0.55;0.50;;;;;;;;;;10349504;28;20471;-27
2021/07/22 07:10:30;;;;;;;0.60;0.60;;;;;;;;;;10359558;28;20050;-25
2021/07/22 07:15:33;;;;;;;0.50;0.50;;;;;;;;;;10353295;28;20044;-26
2021/07/22 07:20:37;;;;;;;0.40;0.40;;;;;;;;;;10358310;28;20044;-25
2021/07/22 07:25:40;;;;;;;0.50;0.50;;;;;;;;;;10355984;28;20037;-26
2021/07/22 07:30:44;;;;;;;0.35;0.35;;;;;;;;;;10356496;28;20438;-26
2021/07/22 07:35:48;;;;;;;0.93;0.50;;;;;;;;;;10352351;28;20054;-26
2021/07/22 07:40:50;;;;;;;0.57;0.40;;;;;;;;;;10343104;28;20061;-26
2021/07/22 07:45:53;;;;;;;0.50;0.40;;;;;;;;;;10353866;28;20042;-26
2021/07/22 07:50:57;;;;;;;0.63;0.30;;;;;;;;;;10359652;28;20100;-26
2021/07/22 07:56:00;;;;;;;0.50;0.32;;;;;;;;;;10350109;28;20057;-25
2021/07/22 08:01:03;;;;;;;0.40;0.40;;;;;;;;;;10354818;28;20060;-26
2021/07/22 08:06:08;;;;;;;0.95;0.32;;;;;;;;;;10353633;28;20042;-27
2021/07/22 08:11:10;;;;;;;0.30;0.30;;;;;;;;;;10351301;28;20737;-26
2021/07/22 08:16:17;;;;;;;0.30;0.30;;;;;;;;;;10347974;28;20549;-26
2021/07/22 08:21:21;;;;;;;0.30;0.30;;;;;;;;;;10352703;28;20506;-26
2021/07/22 08:26:24;;;;;;;0.30;0.30;;;;;;;;;;10353632;28;20046;-28
2021/07/22 08:31:27;;;;;;;0.38;0.30;;;;;;;;;;10353486;28;20155;-26
2021/07/22 08:36:31;;;;;;;0.50;0.40;;;;;;;;;;10347194;28;20471;-27
2021/07/22 08:41:34;;;;;;;0.70;0.30;;;;;;;;;;10346229;28;20046;-26
2021/07/22 08:46:40;;;;;;;0.32;0.32;;;;;;;;;;10338570;28;20065;-26
2021/07/22 08:51:44;;;;;;;0.50;0.40;;;;;;;;;;10335483;28;20052;-26
2021/07/22 08:56:47;;;;;;;0.40;0.40;;;;;;;;;;10342186;28;20053;-26
2021/07/22 09:01:51;;;;;;;0.40;0.40;;;;;;;;;;10339245;28;20042;-26
2021/07/22 09:06:55;;;;;;;0.50;0.50;;;;;;;;;;10340841;28;20060;-26
2021/07/22 09:11:59;;;;;;;0.30;0.30;;;;;;;;;;10339133;28;20053;-26
2021/07/22 09:17:02;;;;;;;0.40;0.40;;;;;;;;;;10334839;28;20037;-26
2021/07/22 09:22:07;;;;;;;0.50;0.50;;;;;;;;;;10338547;28;20053;-26
2021/07/22 09:27:10;;;;;;;0.40;0.40;;;;;;;;;;10337211;28;20042;-27
2021/07/22 09:32:14;;;;;;;0.40;0.40;;;;;;;;;;10334271;28;20541;-26
2021/07/22 09:37:25;;;;;;;1.00;0.40;;;;;;;;;;10336945;28;20043;-28
2021/07/22 09:42:39;;;;;;;0.32;0.32;;;;;;;;;;10332821;28;20615;-26
2021/07/22 09:47:42;;;;;;;0.85;0.40;;;;;;;;;;10338430;28;20050;-26
2021/07/22 09:52:47;;;;;;;0.30;0.30;;;;;;;;;;10333197;28;20054;-27
2021/07/22 09:57:50;;;;;;;0.32;0.32;;;;;;;;;;10340017;28;20355;-27
2021/07/22 10:02:53;;;;;;;0.47;0.47;;;;;;;;;;10338892;28;20042;-26
2021/07/22 10:07:59;;;;;;;0.50;0.50;;;;;;;;;;10337872;28;20042;-26
2021/07/22 10:13:02;;;;;;;0.40;0.40;;;;;;;;;;10339707;28;20057;-26
2021/07/22 10:18:06;;;;;;;0.32;0.32;;;;;;;;;;10335645;28;20041;-26
2021/07/22 10:23:11;;;;;;;1.17;0.30;;;;;;;;;;10337328;28;20119;-26
2021/07/22 10:28:15;;;;;;;0.28;0.28;;;;;;;;;;10333299;28;20042;-27
2021/07/22 10:33:19;;;;;;;0.40;0.40;;;;;;;;;;10338343;28;20066;-26
2021/07/22 10:38:23;;;;;;;0.30;0.30;;;;;;;;;;10334606;28;20047;-27
2021/07/22 10:43:36;;;;;;;0.40;0.40;;;;;;;;;;10334318;28;20077;-26
2021/07/22 10:48:39;;;;;;;0.20;0.20;;;;;;;;;;10314578;28;20046;-26
2021/07/22 10:53:44;;;;;;;0.40;0.40;;;;;;;;;;10329478;28;20053;-26
2021/07/22 10:58:54;;;;;;;0.40;0.40;;;;;;;;;;10344564;28;20073;-26
2021/07/22 11:03:57;;;;;;;0.30;0.30;;;;;;;;;;10340201;28;20046;-27
2021/07/22 11:09:10;;;;;;;0.68;0.45;;;;;;;;;;10333295;28;20373;-26
2021/07/22 11:14:27;;;;;;;0.40;0.40;;;;;;;;;;10332627;28;20049;-26
2021/07/22 11:19:30;;;;;;;0.38;0.38;;;;;;;;;;10340241;28;20069;-26
2021/07/22 11:24:35;;;;;;;0.30;0.30;;;;;;;;;;10340853;28;20057;-26
2021/07/22 11:29:38;;;;;;;0.40;0.40;;;;;;;;;;10354703;28;20546;-27
2021/07/22 11:34:41;;;;;;;0.30;0.30;;;;;;;;;;10344377;28;20073;-26
2021/07/22 11:39:46;;;;;;;0.30;0.30;;;;;;;;;;10339153;28;20049;-26
2021/07/22 11:45:01;;;;;;;0.30;0.30;;;;;;;;;;10340364;28;20046;-26
2021/07/22 11:50:04;;;;;;;0.30;0.30;;;;;;;;;;10342390;28;20139;-26
2021/07/22 11:55:09;;;;;;;0.30;0.30;;;;;;;;;;10340935;28;20034;-27
2021/07/22 12:00:12;;;;;;;0.30;0.30;;;;;;;;;;10339038;28;20493;-26
2021/07/22 12:05:22;;;;;;;0.40;0.35;;;;;;;;;;10338130;28;20069;-26
2021/07/22 12:10:27;;;;;;;0.40;0.40;;;;;;;;;;10343442;28;20817;-26
2021/07/22 12:15:30;;;;;;;0.20;0.20;;;;;;;;;;10335027;28;20464;-28
2021/07/22 12:20:33;;;;;;;0.32;0.30;;;;;;;;;;10336574;28;20050;-27
2021/07/22 12:25:37;;;;;;;0.20;0.20;;;;;;;;;;10334330;28;20104;-27
2021/07/22 12:30:40;;;;;;;0.30;0.30;;;;;;;;;;10343157;28;20476;-26
2021/07/22 12:35:44;;;;;;;0.30;0.30;;;;;;;;;;10340472;28;20042;-26
2021/07/22 12:40:49;;;;;;;0.90;0.22;;;;;;;;;;10345129;28;20061;-25
2021/07/22 12:45:53;;;;;;;0.30;0.30;;;;;;;;;;10336798;28;20042;-26
2021/07/22 12:50:56;;;;;;;0.30;0.30;;;;;;;;;;10336042;28;20041;-26
2021/07/22 12:56:00;;;;;;;0.60;0.30;;;;;;;;;;10339115;28;20499;-27
2021/07/22 13:01:06;;;;;;;0.30;0.30;;;;;;;;;;10350732;28;20280;-26
2021/07/22 13:06:10;;;;;;;0.25;0.22;;;;;;;;;;10340739;28;20045;-26
2021/07/22 13:11:15;;;;;;;0.20;0.20;;;;;;;;;;10340986;28;20057;-26
2021/07/22 13:16:18;;;;;;;0.22;0.22;;;;;;;;;;10332818;28;20046;-27
2021/07/22 13:21:23;;;;;;;0.30;0.30;;;;;;;;;;10341454;28;20123;-26
2021/07/22 13:26:27;;;;;;;0.30;0.30;;;;;;;;;;10334785;28;20137;-26
2021/07/22 13:31:30;;;;;;;0.30;0.30;;;;;;;;;;10341008;28;20176;-26
2021/07/22 13:36:33;;;;;;;0.30;0.30;;;;;;;;;;10334005;28;20109;-26
2021/07/22 13:41:37;;;;;;;0.40;0.30;;;;;;;;;;10340358;28;20042;-27
2021/07/22 13:46:40;;;;;;;0.20;0.20;;;;;;;;;;10333855;28;20566;-26
2021/07/22 13:51:42;;;;;;;0.30;0.20;;;;;;;;;;10337643;28;20521;-26
2021/07/22 13:56:46;;;;;;;0.20;0.20;;;;;;;;;;10333363;28;20033;-28
2021/07/22 14:01:49;;;;;;;0.22;0.22;;;;;;;;;;10332842;28;20050;-27
2021/07/22 14:06:52;;;;;;;0.20;0.20;;;;;;;;;;10337045;28;20058;-26
2021/07/22 14:12:01;;;;;;;0.40;0.20;;;;;;;;;;10335326;28;20052;-26
2021/07/22 14:17:04;;;;;;;0.32;0.32;;;;;;;;;;10335878;28;20703;-28
2021/07/22 14:22:07;;;;;;;1.10;0.30;;;;;;;;;;10340749;28;20046;-26
2021/07/22 14:27:11;;;;;;;0.30;0.30;;;;;;;;;;10337849;28;20046;-27
2021/07/22 14:32:14;;;;;;;0.30;0.30;;;;;;;;;;10332702;28;20050;-28
2021/07/22 14:37:17;;;;;;;0.30;0.30;;;;;;;;;;10335560;28;20042;-26
2021/07/22 14:42:21;;;;;;;0.80;0.30;;;;;;;;;;10336820;28;20049;-26
2021/07/22 14:47:24;;;;;;;0.40;0.30;;;;;;;;;;10338819;28;20445;-26
2021/07/22 14:52:27;;;;;;;0.20;0.20;;;;;;;;;;10336098;28;20046;-26
2021/07/22 14:57:31;;;;;;;0.30;0.30;;;;;;;;;;10346887;28;20510;-28
2021/07/22 15:02:34;;;;;;;0.20;0.20;;;;;;;;;;10354032;28;20495;-26
2021/07/22 15:07:37;;;;;;;1.15;0.20;;;;;;;;;;10346150;28;20046;-27
2021/07/22 15:12:55;;;;;;;0.20;0.20;;;;;;;;;;10339085;28;20042;-26
2021/07/22 15:17:58;;;;;;;0.20;0.20;;;;;;;;;;10341911;28;20468;-26
2021/07/22 15:23:13;;;;;;;0.30;0.30;;;;;;;;;;10340627;28;20495;-26
2021/07/22 15:28:17;;;;;;;0.20;0.20;;;;;;;;;;10345374;28;20069;-26
2021/07/22 15:33:20;;;;;;;0.45;0.40;;;;;;;;;;10338615;28;20136;-26
2021/07/22 15:38:23;;;;;;;0.55;0.30;;;;;;;;;;10351233;28;20042;-27
2021/07/22 15:43:27;;;;;;;0.82;0.28;;;;;;;;;;10336537;28;20034;-26
2021/07/22 15:48:30;;;;;;;0.20;0.10;;;;;;;;;;10344600;28;20475;-27
2021/07/22 15:53:32;;;;;;;0.20;0.20;;;;;;;;;;10341654;28;20061;-26
2021/07/22 15:58:36;;;;;;;0.30;0.30;;;;;;;;;;10342704;28;20487;-27
2021/07/22 16:03:40;;;;;;;0.30;0.22;;;;;;;;;;10342324;28;20557;-27
2021/07/22 16:08:43;;;;;;;0.30;0.30;;;;;;;;;;10342477;28;20433;-27
2021/07/22 16:13:47;;;;;;;0.20;0.20;;;;;;;;;;10341746;28;20056;-27
2021/07/22 16:18:50;;;;;;;0.30;0.30;;;;;;;;;;10351742;28;20093;-26
2021/07/22 16:23:53;;;;;;;0.20;0.20;;;;;;;;;;10338352;28;20506;-26
2021/07/22 16:28:57;;;;;;;0.30;0.30;;;;;;;;;;10336588;28;20045;-27
2021/07/22 16:34:04;;;;;;;0.40;0.22;;;;;;;;;;10338188;28;20053;-28
2021/07/22 16:39:07;;;;;;;0.35;0.25;;;;;;;;;;10339087;28;20050;-26
2021/07/22 16:44:11;;;;;;;0.20;0.20;;;;;;;;;;10341697;28;20065;-27
2021/07/22 16:49:14;;;;;;;0.20;0.20;;;;;;;;;;10343975;28;20594;-27
2021/07/22 16:54:17;;;;;;;0.20;0.20;;;;;;;;;;10340318;28;20515;-27
2021/07/22 16:59:21;;;;;;;0.20;0.20;;;;;;;;;;10343237;28;20068;-26
2021/07/22 17:04:24;;;;;;;0.20;0.20;;;;;;;;;;10347992;28;20046;-28
2021/07/22 17:09:30;;;;;;;0.20;0.20;;;;;;;;;;10338377;28;20052;-27
2021/07/22 17:14:34;;;;;;;0.38;0.35;;;;;;;;;;10338325;28;20566;-26
2021/07/22 17:19:37;;;;;;;0.20;0.20;;;;;;;;;;10339442;28;20400;-26
2021/07/22 17:24:39;;;;;;;1.00;0.20;;;;;;;;;;10337417;28;20058;-26
2021/07/22 17:29:43;;;;;;;0.50;0.20;;;;;;;;;;10338209;28;20500;-26
2021/07/22 17:34:46;;;;;;;0.43;0.28;;;;;;;;;;10339821;28;20386;-26
2021/07/22 17:39:49;;;;;;;0.20;0.20;;;;;;;;;;10336490;28;20511;-26
2021/07/22 17:44:53;;;;;;;0.40;0.20;;;;;;;;;;10334834;28;20089;-28
2021/07/22 17:49:55;;;;;;;0.20;0.20;;;;;;;;;;10333453;28;20049;-26
2021/07/22 17:54:58;;;;;;;0.30;0.20;;;;;;;;;;10336333;28;20124;-27
2021/07/22 18:00:02;;;;;;;0.38;0.20;;;;;;;;;;10335571;28;20057;-27
2021/07/22 18:05:07;;;;;;;1.38;0.20;;;;;;;;;;10337210;28;20136;-26
2021/07/22 18:10:10;;;;;;;0.25;0.20;;;;;;;;;;10336835;28;20042;-26
2021/07/22 18:15:14;;;;;;;0.10;0.10;;;;;;;;;;10341613;28;20518;-26
2021/07/22 18:20:17;;;;;;;0.10;0.10;;;;;;;;;;10337623;28;20117;-26
2021/07/22 18:25:19;;;;;;;0.10;0.10;;;;;;;;;;10329468;28;20042;-26
2021/07/22 18:30:24;;;;;;;0.20;0.20;;;;;;;;;;10348992;28;20253;-27
2021/07/22 18:35:28;;;;;;;0.20;0.20;;;;;;;;;;10341841;28;20050;-26
2021/07/22 18:40:31;;;;;;;1.02;0.30;;;;;;;;;;10345752;28;20407;-27
2021/07/22 18:45:35;;;;;;;0.40;0.20;;;;;;;;;;10344481;28;20066;-26
2021/07/22 18:50:38;;;;;;;0.43;0.10;;;;;;;;;;10348153;28;20042;-27
2021/07/22 18:55:40;;;;;;;0.20;0.20;;;;;;;;;;10344488;28;20050;-26
2021/07/22 19:00:44;;;;;;;0.20;0.20;;;;;;;;;;10344167;28;20053;-26
2021/07/22 19:05:47;;;;;;;0.20;0.20;;;;;;;;;;10354407;28;20128;-26
2021/07/22 19:10:50;;;;;;;0.30;0.30;;;;;;;;;;10354878;28;20038;-26
2021/07/22 19:15:54;;;;;;;0.20;0.20;;;;;;;;;;10347928;28;20042;-27
2021/07/22 19:20:56;;;;;;;1.50;0.20;;;;;;;;;;10343285;28;20059;-26
2021/07/22 19:25:59;;;;;;;0.73;0.20;;;;;;;;;;10341553;28;20057;-26
2021/07/22 19:31:03;;;;;;;0.20;0.20;;;;;;;;;;10343525;28;20057;-27
2021/07/22 19:36:06;;;;;;;0.20;0.20;;;;;;;;;;10339990;28;20418;-28
2021/07/22 19:41:09;;;;;;;0.20;0.20;;;;;;;;;;10344117;28;20054;-27
2021/07/22 19:46:13;;;;;;;0.20;0.20;;;;;;;;;;10342937;28;20495;-27
2021/07/22 19:51:16;;;;;;;0.20;0.20;;;;;;;;;;10348988;28;20564;-27
2021/07/22 19:56:18;;;;;;;0.73;0.30;;;;;;;;;;10340293;28;20530;-27
2021/07/22 20:01:23;;;;;;;0.40;0.20;;;;;;;;;;10347974;28;20050;-28
2021/07/22 20:06:26;;;;;;;0.20;0.20;;;;;;;;;;10349165;28;20041;-27
2021/07/22 20:11:29;;;;;;;0.20;0.20;;;;;;;;;;10340116;28;20160;-27
2021/07/22 20:16:33;;;;;;;0.40;0.30;;;;;;;;;;10340432;28;20104;-28
2021/07/22 20:21:36;;;;;;;0.30;0.30;;;;;;;;;;10347506;28;20084;-27
2021/07/22 20:26:39;;;;;;;0.20;0.20;;;;;;;;;;10349015;28;20045;-27
2021/07/22 20:31:44;;;;;;;1.10;0.20;;;;;;;;;;10343457;28;20057;-29
2021/07/22 20:36:47;;;;;;;0.65;0.30;;;;;;;;;;10344293;28;20065;-27
2021/07/22 20:41:50;;;;;;;0.20;0.20;;;;;;;;;;10340201;28;20042;-28
2021/07/22 20:46:54;;;;;;;0.30;0.30;;;;;;;;;;10339088;28;20488;-27
2021/07/22 20:51:57;;;;;;;0.30;0.20;;;;;;;;;;10339272;28;20046;-28
2021/07/22 20:57:00;;;;;;;0.20;0.20;;;;;;;;;;10343770;28;20042;-27
2021/07/22 21:02:05;;;;;;;0.30;0.30;;;;;;;;;;10340916;28;20054;-27
2021/07/22 21:07:09;;;;;;;0.20;0.20;;;;;;;;;;10338212;28;20046;-28
2021/07/22 21:12:11;;;;;;;0.68;0.30;;;;;;;;;;10341941;28;20053;-28
2021/07/22 21:17:16;;;;;;;0.20;0.20;;;;;;;;;;10336500;28;20050;-27
2021/07/22 21:22:22;;;;;;;0.22;0.22;;;;;;;;;;10333501;28;20043;-27
2021/07/22 21:27:24;;;;;;;0.50;0.30;;;;;;;;;;10348624;28;20505;-27
2021/07/22 21:32:29;;;;;;;0.32;0.32;;;;;;;;;;10340297;28;20053;-26
2021/07/22 21:37:31;;;;;;;0.22;0.22;;;;;;;;;;10339599;28;20516;-27
2021/07/22 21:42:35;;;;;;;0.30;0.30;;;;;;;;;;10340215;28;20490;-27
2021/07/22 21:47:39;;;;;;;0.30;0.30;;;;;;;;;;10339900;28;20046;-27
2021/07/22 21:52:42;;;;;;;0.30;0.30;;;;;;;;;;10335388;28;20065;-27
2021/07/22 21:57:45;;;;;;;0.30;0.30;;;;;;;;;;10338059;28;20121;-27
2021/07/22 22:02:49;;;;;;;0.40;0.40;;;;;;;;;;10337877;28;20034;-27
2021/07/22 22:07:52;;;;;;;0.40;0.40;;;;;;;;;;10338617;28;20068;-27
2021/07/22 22:12:55;;;;;;;0.30;0.30;;;;;;;;;;10338826;28;20062;-27
2021/07/22 22:17:59;;;;;;;0.40;0.40;;;;;;;;;;10336414;28;20041;-27
2021/07/22 22:23:02;;;;;;;0.30;0.30;;;;;;;;;;10338317;28;20715;-27
2021/07/22 22:28:05;;;;;;;0.40;0.40;;;;;;;;;;10338956;28;20052;-26
2021/07/22 22:33:09;;;;;;;0.40;0.40;;;;;;;;;;10337635;28;20053;-27
2021/07/22 22:38:12;;;;;;;0.60;0.60;;;;;;;;;;10335377;28;20046;-27
2021/07/22 22:43:14;;;;;;;0.40;0.40;;;;;;;;;;10354231;28;20045;-26
2021/07/22 22:48:20;;;;;;;0.50;0.50;;;;;;;;;;10352286;28;20479;-27
2021/07/22 22:53:23;;;;;;;0.50;0.50;;;;;;;;;;10353482;28;20125;-27
2021/07/22 22:58:25;;;;;;;0.40;0.40;;;;;;;;;;10351922;28;20046;-26
2021/07/22 23:03:29;;;;;;;0.65;0.50;;;;;;;;;;10350461;28;20038;-27
2021/07/22 23:08:33;;;;;;;0.50;0.50;;;;;;;;;;10353024;28;20046;-27
2021/07/22 23:13:40;;;;;;;0.50;0.50;;;;;;;;;;10354991;28;20045;-27
2021/07/22 23:18:45;;;;;;;0.50;0.50;;;;;;;;;;10358772;28;20053;-29
2021/07/22 23:23:47;;;;;;;0.50;0.50;;;;;;;;;;10358141;28;20041;-29
2021/07/22 23:28:50;;;;;;;0.52;0.52;;;;;;;;;;10359681;28;20049;-27
2021/07/22 23:33:54;;;;;;;0.43;0.43;;;;;;;;;;10355208;28;20403;-27
2021/07/22 23:38:58;;;;;;;0.50;0.50;;;;;;;;;;10358329;28;20050;-27
2021/07/22 23:44:00;;;;;;;0.55;0.55;;;;;;;;;;10358779;28;20080;-28
2021/07/22 23:49:04;;;;;;;0.40;0.40;;;;;;;;;;10358638;28;20046;-27
2021/07/22 23:54:07;;;;;;;0.50;0.50;;;;;;;;;;10358268;28;20061;-27
2021/07/22 23:59:10;;;;;;;0.40;0.40;;;;;;;;;;10359271;28;20762;-27
